createdAt,value
2023-05-09T00:04:57.268Z,98
2023-05-09T00:09:56.649Z,98
2023-05-09T00:14:57.015Z,98
2023-05-09T00:19:56.185Z,98
2023-05-09T00:24:57.230Z,98
2023-05-09T00:29:53.535Z,98
2023-05-09T00:34:53.457Z,98
2023-05-09T00:39:52.710Z,98
2023-05-09T00:44:52.688Z,98
2023-05-09T00:49:51.040Z,98
2023-05-09T00:54:51.060Z,98
2023-05-09T01:59:12.338Z,99
2023-05-09T02:04:12.768Z,99
2023-05-09T02:09:10.772Z,99
2023-05-09T02:14:11.946Z,99
2023-05-09T02:19:10.964Z,99
2023-05-09T02:23:59.601Z,99
2023-05-09T02:28:59.813Z,99
2023-05-09T02:33:59.305Z,99
2023-05-09T02:38:59.223Z,99
2023-05-09T02:43:56.776Z,99
2023-05-09T02:48:56.188Z,99
2023-05-09T02:53:55.330Z,99
2023-05-09T02:58:54.979Z,99
2023-05-09T03:03:54.474Z,99
2023-05-09T03:08:54.058Z,99
2023-05-09T03:13:54.460Z,99
2023-05-09T03:18:53.794Z,99
2023-05-09T03:23:51.561Z,99
2023-05-09T03:28:51.071Z,99
2023-05-09T03:33:51.427Z,99
2023-05-09T03:38:51.062Z,99
2023-05-09T03:43:50.308Z,99
2023-05-09T03:48:49.539Z,99
2023-05-09T03:53:49.832Z,99
2023-05-09T03:58:49.200Z,99
2023-05-09T04:05:10.211Z,99
2023-05-09T04:10:09.828Z,99
2023-05-09T04:15:09.287Z,99
2023-05-09T04:20:08.451Z,99
2023-05-09T04:25:08.124Z,99
2023-05-09T04:30:08.479Z,99
2023-05-09T04:35:07.952Z,99
2023-05-09T04:40:08.937Z,99
2023-05-09T04:45:15.870Z,99
2023-05-09T04:50:15.278Z,99
2023-05-09T04:55:15.930Z,99
2023-05-09T04:59:07.448Z,99
2023-05-09T05:04:07.274Z,99
2023-05-09T05:09:07.549Z,99
2023-05-09T05:14:06.940Z,99
2023-05-09T05:19:16.925Z,99
2023-05-09T05:24:06.834Z,99
2023-05-09T05:29:16.230Z,99
2023-05-09T05:34:18.162Z,99
2023-05-09T05:39:15.580Z,99
2023-05-09T05:44:15.165Z,99
2023-05-09T05:49:16.039Z,99
2023-05-09T05:54:12.782Z,99
2023-05-09T05:59:13.472Z,99
2023-05-09T06:04:14.197Z,99
2023-05-09T06:09:11.254Z,99
2023-05-09T06:14:10.479Z,99
2023-05-09T06:19:10.587Z,99
2023-05-09T06:24:27.854Z,99
2023-05-09T06:28:58.353Z,99
2023-05-09T06:33:58.271Z,99
2023-05-09T06:38:57.897Z,99
2023-05-09T06:43:57.626Z,99
2023-05-09T06:48:56.987Z,99
2023-05-09T06:53:57.131Z,99
2023-05-09T06:58:56.732Z,98
2023-05-09T07:03:57.730Z,98
2023-05-09T07:08:54.288Z,98
2023-05-09T07:13:54.391Z,98
2023-05-09T07:18:54.917Z,98
2023-05-09T07:23:54.156Z,98
2023-05-09T07:28:53.908Z,97
2023-05-09T07:33:54.614Z,97
2023-05-09T07:38:53.883Z,96
2023-05-09T07:43:54.997Z,95
2023-05-09T07:48:51.879Z,95
2023-05-09T07:53:51.474Z,94
2023-05-09T07:58:50.755Z,94
2023-05-09T08:03:50.787Z,94
2023-05-09T08:08:49.643Z,94
2023-05-09T08:13:47.497Z,94
2023-05-09T08:18:47.057Z,94
2023-05-09T08:23:46.644Z,92
2023-05-09T08:28:46.205Z,92
2023-05-09T08:33:46.084Z,89
2023-05-09T08:38:46.252Z,86
2023-05-09T08:43:46.133Z,86
2023-05-09T08:48:47.444Z,84
2023-05-09T08:53:43.901Z,82
2023-05-09T08:58:43.422Z,83
2023-05-09T09:05:28.952Z,82
2023-05-09T09:10:14.556Z,82
2023-05-09T09:15:14.203Z,81
2023-05-09T09:20:13.264Z,80
2023-05-09T09:25:13.208Z,81
2023-05-09T09:30:13.275Z,81
2023-05-09T09:35:14.550Z,82
2023-05-09T09:40:11.772Z,81
2023-05-09T09:45:11.257Z,82
2023-05-09T09:50:13.443Z,83
2023-05-09T09:54:59.237Z,83
2023-05-09T09:59:16.054Z,85
2023-05-09T10:04:16.688Z,83
2023-05-09T10:09:15.395Z,81
2023-05-09T10:14:15.794Z,82
2023-05-09T10:19:15.605Z,82
2023-05-09T10:24:17.168Z,79
2023-05-09T10:29:14.453Z,79
2023-05-09T10:34:14.702Z,78
2023-05-09T10:39:13.508Z,79
2023-05-09T10:44:13.576Z,79
2023-05-09T10:49:13.412Z,79
2023-05-09T10:54:54.994Z,80
2023-05-09T10:59:13.553Z,81
2023-05-09T11:04:14.644Z,81
2023-05-09T11:09:12.991Z,82
2023-05-09T11:14:13.427Z,80
2023-05-09T11:19:13.120Z,79
2023-05-09T11:24:14.716Z,80
2023-05-09T11:29:11.865Z,82
2023-05-09T11:34:11.310Z,83
2023-05-09T11:39:13.055Z,82
2023-05-09T11:43:59.368Z,82
2023-05-09T11:48:59.278Z,83
2023-05-09T11:53:58.698Z,83
2023-05-09T11:58:58.529Z,82
2023-05-09T12:03:56.277Z,82
2023-05-09T12:08:55.891Z,83
2023-05-09T12:13:56.044Z,83
2023-05-09T12:18:57.303Z,84
2023-05-09T12:23:53.532Z,84
2023-05-09T12:28:53.426Z,84
2023-05-09T12:33:52.829Z,83
2023-05-09T12:38:52.775Z,83
2023-05-09T12:43:49.956Z,82
2023-05-09T12:48:49.728Z,83
2023-05-09T12:53:50.246Z,81
2023-05-09T12:58:50.168Z,80
2023-05-09T13:03:49.212Z,79
2023-05-09T13:08:48.773Z,79
2023-05-09T13:13:49.098Z,79
2023-05-09T13:18:48.507Z,78
2023-05-09T13:23:49.510Z,80
2023-05-09T13:28:46.088Z,79
2023-05-09T13:33:45.938Z,78
2023-05-09T13:38:45.141Z,77
2023-05-09T13:43:45.155Z,76
2023-05-09T13:48:42.647Z,76
2023-05-09T13:53:42.120Z,77
2023-05-09T13:58:41.675Z,77
2023-05-09T14:00:33.294Z,77
2023-05-09T14:05:12.565Z,77
2023-05-09T14:10:15.413Z,78
2023-05-09T14:15:14.900Z,78
2023-05-09T14:20:10.495Z,78
2023-05-09T14:24:59.732Z,78
2023-05-09T14:29:59.266Z,77
2023-05-09T14:35:00.536Z,77
2023-05-09T14:39:57.114Z,77
2023-05-09T14:44:57.145Z,77
2023-05-09T14:49:56.538Z,77
2023-05-09T14:54:56.400Z,76
2023-05-09T15:04:13.366Z,76
2023-05-09T15:09:13.190Z,76
2023-05-09T15:14:12.072Z,76
2023-05-09T15:19:15.009Z,74
2023-05-09T15:24:12.102Z,72
2023-05-09T15:29:10.430Z,75
2023-05-09T15:34:11.029Z,73
2023-05-09T15:39:10.801Z,74
2023-05-09T15:43:59.071Z,74
2023-05-09T15:48:58.720Z,74
2023-05-09T15:53:58.680Z,73
2023-05-09T15:58:58.214Z,74
2023-05-09T16:03:59.489Z,74
2023-05-09T16:08:55.636Z,73
2023-05-09T16:13:55.718Z,75
2023-05-09T16:18:55.195Z,75
2023-05-09T16:23:54.997Z,74
2023-05-09T16:28:52.354Z,75
2023-05-09T16:33:52.188Z,76
2023-05-09T16:38:51.696Z,77
2023-05-09T16:43:50.892Z,78
2023-05-09T16:48:50.056Z,77
2023-05-09T16:53:49.448Z,79
2023-05-09T16:58:49.443Z,79
2023-05-09T17:03:48.933Z,80
2023-05-09T17:08:46.741Z,82
2023-05-09T17:13:46.403Z,84
2023-05-09T17:18:48.729Z,86
2023-05-09T17:23:46.275Z,89
2023-05-09T17:28:45.486Z,91
2023-05-09T17:33:44.758Z,92
2023-05-09T17:38:44.827Z,93
2023-05-09T17:43:44.129Z,94
2023-05-09T17:48:45.301Z,94
2023-05-09T17:53:41.662Z,95
2023-05-09T17:58:41.586Z,95
2023-05-09T18:05:14.256Z,95
2023-05-09T18:10:11.471Z,95
2023-05-09T18:15:11.182Z,95
2023-05-09T18:20:12.908Z,95
2023-05-09T18:24:58.942Z,96
2023-05-09T18:29:58.823Z,96
2023-05-09T18:34:58.005Z,96
2023-05-09T18:39:57.999Z,96
2023-05-09T18:44:55.839Z,96
2023-05-09T18:49:55.681Z,96
2023-05-09T18:54:55.442Z,97
2023-05-09T18:59:39.603Z,97
2023-05-09T19:04:19.066Z,97
2023-05-09T19:09:18.660Z,97
2023-05-09T19:14:18.052Z,97
2023-05-09T19:19:17.954Z,97
2023-05-09T19:24:15.465Z,98
2023-05-09T19:29:15.325Z,98
2023-05-09T19:34:15.807Z,98
2023-05-09T19:39:16.885Z,98
2023-05-09T19:44:13.323Z,98
2023-05-09T19:49:13.122Z,98
2023-05-09T19:54:12.454Z,98
2023-05-09T19:59:11.881Z,98
2023-05-09T20:03:58.869Z,98
2023-05-09T20:08:58.199Z,99
2023-05-09T20:13:57.584Z,99
2023-05-09T20:18:56.453Z,99
2023-05-09T20:23:56.020Z,99
2023-05-09T20:28:56.062Z,99
2023-05-09T20:33:55.592Z,99
2023-05-09T20:38:56.431Z,99
2023-05-09T20:43:52.952Z,99
2023-05-09T20:48:52.894Z,99
2023-05-09T20:53:52.321Z,99
2023-05-09T20:58:52.335Z,100
2023-05-09T21:03:49.782Z,100
2023-05-09T21:08:49.480Z,100
2023-05-09T21:13:48.690Z,99
2023-05-09T21:18:48.247Z,100
2023-05-09T21:23:47.399Z,100
2023-05-09T21:28:46.988Z,100
2023-05-09T21:33:46.927Z,100
2023-05-09T21:38:46.385Z,100
2023-05-09T21:43:47.336Z,99
2023-05-09T21:48:43.968Z,100
2023-05-09T21:53:43.870Z,100
2023-05-09T21:58:43.792Z,100
2023-05-09T22:05:16.365Z,99
2023-05-09T22:10:16.300Z,99
2023-05-09T22:15:16.919Z,99
2023-05-09T22:20:14.123Z,99
2023-05-09T22:25:13.481Z,99
2023-05-09T22:30:15.432Z,99
2023-05-09T22:35:11.902Z,99
2023-05-09T22:40:11.579Z,99
2023-05-09T22:45:11.589Z,99
2023-05-09T22:49:59.228Z,99
2023-05-09T22:54:58.890Z,99
2023-05-09T22:59:16.710Z,99
2023-05-09T23:04:06.724Z,99
2023-05-09T23:09:14.593Z,99
2023-05-09T23:14:15.339Z,99
2023-05-09T23:19:15.493Z,99
2023-05-09T23:24:13.930Z,99
2023-05-09T23:29:14.308Z,99
2023-05-09T23:34:15.125Z,99
2023-05-09T23:39:12.743Z,99
2023-05-09T23:44:12.238Z,99
2023-05-09T23:49:12.355Z,99
2023-05-09T23:54:11.245Z,99
2023-05-09T23:59:11.491Z,99
